sensor_id;sensor_type;location;lat;lon;timestamp;P1;durP1;ratioP1;P2;durP2;ratioP2
49730;SDS011;35622;52.008;5.426;2023-03-23T00:00:58;9.82;;;5.38;;
49730;SDS011;35622;52.008;5.426;2023-03-23T00:03:24;9.57;;;5.40;;
49730;SDS011;35622;52.008;5.426;2023-03-23T00:05:53;13.30;;;6.00;;
49730;SDS011;35622;52.008;5.426;2023-03-23T00:08:27;10.65;;;5.70;;
49730;SDS011;35622;52.008;5.426;2023-03-23T00:10:54;10.07;;;5.40;;
49730;SDS011;35622;52.008;5.426;2023-03-23T00:13:23;9.80;;;5.53;;
49730;SDS011;35622;52.008;5.426;2023-03-23T00:15:52;9.57;;;5.60;;
49730;SDS011;35622;52.008;5.426;2023-03-23T00:18:21;7.00;;;5.50;;
49730;SDS011;35622;52.008;5.426;2023-03-23T00:20:50;7.80;;;5.72;;
49730;SDS011;35622;52.008;5.426;2023-03-23T00:23:17;9.10;;;5.00;;
49730;SDS011;35622;52.008;5.426;2023-03-23T00:25:45;9.32;;;4.95;;
49730;SDS011;35622;52.008;5.426;2023-03-23T00:28:18;10.38;;;5.07;;
49730;SDS011;35622;52.008;5.426;2023-03-23T00:30:53;8.38;;;4.90;;
49730;SDS011;35622;52.008;5.426;2023-03-23T00:33:21;7.75;;;5.15;;
49730;SDS011;35622;52.008;5.426;2023-03-23T00:35:48;8.75;;;5.28;;
49730;SDS011;35622;52.008;5.426;2023-03-23T00:38:17;8.95;;;4.60;;
49730;SDS011;35622;52.008;5.426;2023-03-23T00:40:46;8.40;;;4.55;;
49730;SDS011;35622;52.008;5.426;2023-03-23T00:43:15;7.40;;;4.50;;
49730;SDS011;35622;52.008;5.426;2023-03-23T00:45:43;8.50;;;4.72;;
49730;SDS011;35622;52.008;5.426;2023-03-23T00:48:21;7.50;;;4.68;;
49730;SDS011;35622;52.008;5.426;2023-03-23T00:50:48;6.43;;;4.57;;
49730;SDS011;35622;52.008;5.426;2023-03-23T00:53:14;6.68;;;4.78;;
49730;SDS011;35622;52.008;5.426;2023-03-23T00:55:40;10.10;;;4.50;;
49730;SDS011;35622;52.008;5.426;2023-03-23T00:58:07;10.55;;;4.70;;
49730;SDS011;35622;52.008;5.426;2023-03-23T01:00:33;8.40;;;4.60;;
49730;SDS011;35622;52.008;5.426;2023-03-23T01:02:58;9.90;;;4.30;;
49730;SDS011;35622;52.008;5.426;2023-03-23T01:05:24;7.28;;;4.50;;
49730;SDS011;35622;52.008;5.426;2023-03-23T01:07:58;7.65;;;4.25;;
49730;SDS011;35622;52.008;5.426;2023-03-23T01:10:24;7.43;;;4.93;;
49730;SDS011;35622;52.008;5.426;2023-03-23T01:12:51;6.85;;;4.18;;
49730;SDS011;35622;52.008;5.426;2023-03-23T01:15:17;6.75;;;4.50;;
49730;SDS011;35622;52.008;5.426;2023-03-23T01:17:44;6.97;;;3.80;;
49730;SDS011;35622;52.008;5.426;2023-03-23T01:20:11;8.27;;;4.18;;
49730;SDS011;35622;52.008;5.426;2023-03-23T01:22:38;6.43;;;4.10;;
49730;SDS011;35622;52.008;5.426;2023-03-23T01:25:04;7.18;;;3.95;;
49730;SDS011;35622;52.008;5.426;2023-03-23T01:27:31;5.97;;;3.63;;
49730;SDS011;35622;52.008;5.426;2023-03-23T01:29:57;6.03;;;3.60;;
49730;SDS011;35622;52.008;5.426;2023-03-23T01:32:22;7.55;;;3.38;;
49730;SDS011;35622;52.008;5.426;2023-03-23T01:34:48;5.97;;;3.55;;
49730;SDS011;35622;52.008;5.426;2023-03-23T01:37:14;7.15;;;3.95;;
49730;SDS011;35622;52.008;5.426;2023-03-23T01:39:40;5.47;;;3.75;;
49730;SDS011;35622;52.008;5.426;2023-03-23T01:42:08;7.90;;;3.63;;
49730;SDS011;35622;52.008;5.426;2023-03-23T01:47:00;7.72;;;3.47;;
49730;SDS011;35622;52.008;5.426;2023-03-23T01:49:27;7.80;;;3.75;;
49730;SDS011;35622;52.008;5.426;2023-03-23T01:52:00;6.13;;;3.88;;
49730;SDS011;35622;52.008;5.426;2023-03-23T01:54:31;6.97;;;4.05;;
49730;SDS011;35622;52.008;5.426;2023-03-23T01:59:27;6.88;;;4.40;;
49730;SDS011;35622;52.008;5.426;2023-03-23T02:01:55;7.57;;;3.75;;
49730;SDS011;35622;52.008;5.426;2023-03-23T02:04:21;6.45;;;4.10;;
49730;SDS011;35622;52.008;5.426;2023-03-23T02:06:49;7.18;;;4.50;;
49730;SDS011;35622;52.008;5.426;2023-03-23T02:09:17;6.68;;;4.20;;
49730;SDS011;35622;52.008;5.426;2023-03-23T02:11:43;9.13;;;4.68;;
49730;SDS011;35622;52.008;5.426;2023-03-23T02:14:10;6.43;;;4.40;;
49730;SDS011;35622;52.008;5.426;2023-03-23T02:24:51;8.27;;;5.00;;
49730;SDS011;35622;52.008;5.426;2023-03-23T02:35:52;7.03;;;4.70;;
49730;SDS011;35622;52.008;5.426;2023-03-23T02:38:38;7.50;;;4.57;;
49730;SDS011;35622;52.008;5.426;2023-03-23T02:41:08;6.25;;;4.82;;
49730;SDS011;35622;52.008;5.426;2023-03-23T02:43:38;6.22;;;4.18;;
49730;SDS011;35622;52.008;5.426;2023-03-23T02:46:08;7.18;;;4.95;;
49730;SDS011;35622;52.008;5.426;2023-03-23T02:48:35;5.90;;;4.80;;
49730;SDS011;35622;52.008;5.426;2023-03-23T02:51:03;7.30;;;4.63;;
49730;SDS011;35622;52.008;5.426;2023-03-23T02:53:29;8.57;;;5.20;;
49730;SDS011;35622;52.008;5.426;2023-03-23T02:55:57;8.20;;;5.03;;
49730;SDS011;35622;52.008;5.426;2023-03-23T02:58:27;6.97;;;5.15;;
49730;SDS011;35622;52.008;5.426;2023-03-23T03:00:54;7.50;;;5.30;;
49730;SDS011;35622;52.008;5.426;2023-03-23T03:03:22;8.32;;;5.20;;
49730;SDS011;35622;52.008;5.426;2023-03-23T03:05:58;6.93;;;4.65;;
49730;SDS011;35622;52.008;5.426;2023-03-23T03:11:08;8.80;;;4.85;;
49730;SDS011;35622;52.008;5.426;2023-03-23T03:16:11;7.90;;;4.32;;
49730;SDS011;35622;52.008;5.426;2023-03-23T03:18:56;7.13;;;4.45;;
49730;SDS011;35622;52.008;5.426;2023-03-23T03:21:30;7.75;;;4.43;;
49730;SDS011;35622;52.008;5.426;2023-03-23T03:24:01;9.13;;;4.25;;
49730;SDS011;35622;52.008;5.426;2023-03-23T03:26:32;6.25;;;3.92;;
49730;SDS011;35622;52.008;5.426;2023-03-23T03:28:59;7.75;;;3.88;;
49730;SDS011;35622;52.008;5.426;2023-03-23T03:31:28;7.32;;;3.83;;
49730;SDS011;35622;52.008;5.426;2023-03-23T03:33:57;8.23;;;3.70;;
49730;SDS011;35622;52.008;5.426;2023-03-23T03:36:24;5.88;;;3.50;;
49730;SDS011;35622;52.008;5.426;2023-03-23T03:39:00;5.10;;;3.35;;
49730;SDS011;35622;52.008;5.426;2023-03-23T03:41:29;8.45;;;3.45;;
49730;SDS011;35622;52.008;5.426;2023-03-23T03:43:55;7.15;;;3.80;;
49730;SDS011;35622;52.008;5.426;2023-03-23T03:46:20;6.10;;;3.70;;
49730;SDS011;35622;52.008;5.426;2023-03-23T03:48:46;6.75;;;3.50;;
49730;SDS011;35622;52.008;5.426;2023-03-23T03:51:12;7.05;;;3.90;;
49730;SDS011;35622;52.008;5.426;2023-03-23T03:53:37;6.32;;;4.35;;
49730;SDS011;35622;52.008;5.426;2023-03-23T03:56:03;7.60;;;3.72;;
49730;SDS011;35622;52.008;5.426;2023-03-23T03:58:30;7.28;;;4.20;;
49730;SDS011;35622;52.008;5.426;2023-03-23T04:01:01;5.25;;;3.95;;
49730;SDS011;35622;52.008;5.426;2023-03-23T04:03:27;6.15;;;4.22;;
49730;SDS011;35622;52.008;5.426;2023-03-23T04:05:53;6.15;;;3.40;;
49730;SDS011;35622;52.008;5.426;2023-03-23T04:08:20;7.28;;;3.45;;
49730;SDS011;35622;52.008;5.426;2023-03-23T04:10:51;6.03;;;3.45;;
49730;SDS011;35622;52.008;5.426;2023-03-23T04:13:17;8.25;;;4.07;;
49730;SDS011;35622;52.008;5.426;2023-03-23T04:15:43;4.82;;;3.40;;
49730;SDS011;35622;52.008;5.426;2023-03-23T04:18:10;5.30;;;3.03;;
49730;SDS011;35622;52.008;5.426;2023-03-23T04:20:36;5.35;;;3.15;;
49730;SDS011;35622;52.008;5.426;2023-03-23T04:23:02;4.38;;;2.90;;
49730;SDS011;35622;52.008;5.426;2023-03-23T04:25:28;7.15;;;3.05;;
49730;SDS011;35622;52.008;5.426;2023-03-23T04:27:57;7.78;;;2.97;;
49730;SDS011;35622;52.008;5.426;2023-03-23T04:30:29;8.65;;;2.70;;
49730;SDS011;35622;52.008;5.426;2023-03-23T04:32:56;4.57;;;2.35;;
49730;SDS011;35622;52.008;5.426;2023-03-23T04:35:25;6.00;;;2.70;;
49730;SDS011;35622;52.008;5.426;2023-03-23T04:37:51;6.30;;;2.30;;
49730;SDS011;35622;52.008;5.426;2023-03-23T04:40:17;5.95;;;2.38;;
49730;SDS011;35622;52.008;5.426;2023-03-23T04:42:44;5.57;;;2.30;;
49730;SDS011;35622;52.008;5.426;2023-03-23T04:45:11;5.30;;;2.03;;
49730;SDS011;35622;52.008;5.426;2023-03-23T04:47:39;7.32;;;2.45;;
49730;SDS011;35622;52.008;5.426;2023-03-23T04:50:09;6.68;;;2.00;;
49730;SDS011;35622;52.008;5.426;2023-03-23T04:52:39;6.07;;;1.70;;
49730;SDS011;35622;52.008;5.426;2023-03-23T04:55:09;7.43;;;2.33;;
49730;SDS011;35622;52.008;5.426;2023-03-23T04:57:35;6.90;;;2.00;;
49730;SDS011;35622;52.008;5.426;2023-03-23T05:00:01;8.52;;;2.17;;
49730;SDS011;35622;52.008;5.426;2023-03-23T05:02:34;4.85;;;1.50;;
49730;SDS011;35622;52.008;5.426;2023-03-23T05:05:01;6.78;;;1.92;;
49730;SDS011;35622;52.008;5.426;2023-03-23T05:07:26;7.63;;;1.63;;
49730;SDS011;35622;52.008;5.426;2023-03-23T05:09:52;8.40;;;2.50;;
49730;SDS011;35622;52.008;5.426;2023-03-23T05:12:17;5.25;;;1.92;;
49730;SDS011;35622;52.008;5.426;2023-03-23T05:14:43;8.45;;;2.13;;
49730;SDS011;35622;52.008;5.426;2023-03-23T05:17:09;7.20;;;1.98;;
49730;SDS011;35622;52.008;5.426;2023-03-23T05:19:34;7.22;;;1.88;;
49730;SDS011;35622;52.008;5.426;2023-03-23T05:22:01;7.32;;;2.10;;
49730;SDS011;35622;52.008;5.426;2023-03-23T05:24:31;9.27;;;2.03;;
49730;SDS011;35622;52.008;5.426;2023-03-23T05:26:57;7.32;;;1.95;;
49730;SDS011;35622;52.008;5.426;2023-03-23T05:29:28;7.43;;;2.22;;
49730;SDS011;35622;52.008;5.426;2023-03-23T05:31:55;5.82;;;2.00;;
49730;SDS011;35622;52.008;5.426;2023-03-23T05:34:24;7.18;;;2.15;;
49730;SDS011;35622;52.008;5.426;2023-03-23T05:36:51;8.38;;;1.95;;
49730;SDS011;35622;52.008;5.426;2023-03-23T05:39:18;12.93;;;2.20;;
49730;SDS011;35622;52.008;5.426;2023-03-23T05:41:44;12.18;;;2.40;;
49730;SDS011;35622;52.008;5.426;2023-03-23T05:44:09;8.63;;;1.80;;
49730;SDS011;35622;52.008;5.426;2023-03-23T05:46:35;7.78;;;1.55;;
49730;SDS011;35622;52.008;5.426;2023-03-23T05:49:00;9.98;;;1.83;;
49730;SDS011;35622;52.008;5.426;2023-03-23T05:51:27;8.52;;;2.00;;
49730;SDS011;35622;52.008;5.426;2023-03-23T05:53:52;5.80;;;1.65;;
49730;SDS011;35622;52.008;5.426;2023-03-23T05:56:18;10.52;;;1.90;;
49730;SDS011;35622;52.008;5.426;2023-03-23T05:58:44;6.70;;;1.73;;
49730;SDS011;35622;52.008;5.426;2023-03-23T06:01:09;8.32;;;1.85;;
49730;SDS011;35622;52.008;5.426;2023-03-23T06:03:37;11.35;;;2.08;;
49730;SDS011;35622;52.008;5.426;2023-03-23T06:06:03;6.82;;;2.00;;
49730;SDS011;35622;52.008;5.426;2023-03-23T06:08:29;7.53;;;1.80;;
49730;SDS011;35622;52.008;5.426;2023-03-23T06:10:55;7.80;;;2.25;;
49730;SDS011;35622;52.008;5.426;2023-03-23T06:13:21;7.38;;;1.70;;
49730;SDS011;35622;52.008;5.426;2023-03-23T06:15:48;7.32;;;1.90;;
49730;SDS011;35622;52.008;5.426;2023-03-23T06:18:13;8.32;;;1.60;;
49730;SDS011;35622;52.008;5.426;2023-03-23T06:20:39;8.30;;;1.75;;
49730;SDS011;35622;52.008;5.426;2023-03-23T06:23:05;6.85;;;1.70;;
49730;SDS011;35622;52.008;5.426;2023-03-23T06:25:31;7.38;;;1.98;;
49730;SDS011;35622;52.008;5.426;2023-03-23T06:27:58;8.82;;;1.92;;
49730;SDS011;35622;52.008;5.426;2023-03-23T06:30:23;6.05;;;1.88;;
49730;SDS011;35622;52.008;5.426;2023-03-23T06:32:50;7.93;;;2.28;;
49730;SDS011;35622;52.008;5.426;2023-03-23T06:35:16;6.57;;;1.80;;
49730;SDS011;35622;52.008;5.426;2023-03-23T06:37:41;7.75;;;2.25;;
49730;SDS011;35622;52.008;5.426;2023-03-23T06:40:07;9.75;;;2.00;;
49730;SDS011;35622;52.008;5.426;2023-03-23T06:42:34;7.25;;;2.30;;
49730;SDS011;35622;52.008;5.426;2023-03-23T06:45:00;8.27;;;2.42;;
49730;SDS011;35622;52.008;5.426;2023-03-23T06:47:27;9.80;;;2.58;;
49730;SDS011;35622;52.008;5.426;2023-03-23T06:49:56;11.57;;;2.22;;
49730;SDS011;35622;52.008;5.426;2023-03-23T06:52:22;6.20;;;2.38;;
49730;SDS011;35622;52.008;5.426;2023-03-23T06:54:49;9.63;;;2.78;;
49730;SDS011;35622;52.008;5.426;2023-03-23T06:57:15;10.15;;;2.50;;
49730;SDS011;35622;52.008;5.426;2023-03-23T06:59:43;11.07;;;2.63;;
49730;SDS011;35622;52.008;5.426;2023-03-23T07:02:09;8.90;;;2.60;;
49730;SDS011;35622;52.008;5.426;2023-03-23T07:04:36;12.63;;;2.85;;
49730;SDS011;35622;52.008;5.426;2023-03-23T07:07:03;7.50;;;2.38;;
49730;SDS011;35622;52.008;5.426;2023-03-23T07:09:29;7.68;;;2.00;;
49730;SDS011;35622;52.008;5.426;2023-03-23T07:11:55;8.40;;;2.58;;
49730;SDS011;35622;52.008;5.426;2023-03-23T07:14:21;8.50;;;2.03;;
49730;SDS011;35622;52.008;5.426;2023-03-23T07:16:47;6.88;;;1.85;;
49730;SDS011;35622;52.008;5.426;2023-03-23T07:19:13;6.55;;;2.35;;
49730;SDS011;35622;52.008;5.426;2023-03-23T07:21:38;7.82;;;2.00;;
49730;SDS011;35622;52.008;5.426;2023-03-23T07:24:04;9.68;;;2.38;;
49730;SDS011;35622;52.008;5.426;2023-03-23T07:26:30;6.78;;;1.58;;
49730;SDS011;35622;52.008;5.426;2023-03-23T07:28:56;6.22;;;1.40;;
49730;SDS011;35622;52.008;5.426;2023-03-23T07:31:22;6.18;;;1.60;;
49730;SDS011;35622;52.008;5.426;2023-03-23T07:33:47;6.85;;;1.85;;
49730;SDS011;35622;52.008;5.426;2023-03-23T07:36:13;6.60;;;2.10;;
49730;SDS011;35622;52.008;5.426;2023-03-23T07:38:38;8.10;;;1.73;;
49730;SDS011;35622;52.008;5.426;2023-03-23T07:41:05;8.82;;;2.13;;
49730;SDS011;35622;52.008;5.426;2023-03-23T07:43:31;8.10;;;2.13;;
49730;SDS011;35622;52.008;5.426;2023-03-23T07:45:57;8.75;;;2.08;;
49730;SDS011;35622;52.008;5.426;2023-03-23T07:48:22;7.53;;;2.53;;
49730;SDS011;35622;52.008;5.426;2023-03-23T07:50:48;5.90;;;1.83;;
49730;SDS011;35622;52.008;5.426;2023-03-23T07:53:14;8.07;;;2.50;;
49730;SDS011;35622;52.008;5.426;2023-03-23T07:55:39;11.02;;;2.95;;
49730;SDS011;35622;52.008;5.426;2023-03-23T07:58:05;8.80;;;2.50;;
49730;SDS011;35622;52.008;5.426;2023-03-23T08:00:31;8.10;;;2.20;;
49730;SDS011;35622;52.008;5.426;2023-03-23T08:02:57;7.15;;;2.50;;
49730;SDS011;35622;52.008;5.426;2023-03-23T08:05:24;5.68;;;2.05;;
49730;SDS011;35622;52.008;5.426;2023-03-23T08:07:51;7.80;;;1.80;;
49730;SDS011;35622;52.008;5.426;2023-03-23T08:10:19;4.63;;;1.80;;
49730;SDS011;35622;52.008;5.426;2023-03-23T08:12:50;7.47;;;1.92;;
49730;SDS011;35622;52.008;5.426;2023-03-23T08:15:17;5.97;;;2.05;;
49730;SDS011;35622;52.008;5.426;2023-03-23T08:17:43;4.70;;;1.73;;
49730;SDS011;35622;52.008;5.426;2023-03-23T08:20:09;6.40;;;2.00;;
49730;SDS011;35622;52.008;5.426;2023-03-23T08:22:38;6.75;;;1.85;;
49730;SDS011;35622;52.008;5.426;2023-03-23T08:25:05;8.63;;;2.00;;
49730;SDS011;35622;52.008;5.426;2023-03-23T08:27:33;8.20;;;1.88;;
49730;SDS011;35622;52.008;5.426;2023-03-23T08:29:59;6.18;;;2.15;;
49730;SDS011;35622;52.008;5.426;2023-03-23T08:32:24;7.70;;;1.90;;
49730;SDS011;35622;52.008;5.426;2023-03-23T08:34:50;7.65;;;1.88;;
49730;SDS011;35622;52.008;5.426;2023-03-23T08:37:16;6.35;;;1.73;;
49730;SDS011;35622;52.008;5.426;2023-03-23T08:39:42;8.68;;;2.10;;
49730;SDS011;35622;52.008;5.426;2023-03-23T08:42:08;6.03;;;1.92;;
49730;SDS011;35622;52.008;5.426;2023-03-23T08:44:35;7.60;;;1.85;;
49730;SDS011;35622;52.008;5.426;2023-03-23T08:47:01;8.07;;;2.10;;
49730;SDS011;35622;52.008;5.426;2023-03-23T08:49:29;6.15;;;1.90;;
49730;SDS011;35622;52.008;5.426;2023-03-23T08:51:57;7.55;;;2.00;;
49730;SDS011;35622;52.008;5.426;2023-03-23T08:54:24;5.07;;;2.00;;
49730;SDS011;35622;52.008;5.426;2023-03-23T08:56:51;6.20;;;1.58;;
49730;SDS011;35622;52.008;5.426;2023-03-23T08:59:17;4.80;;;1.63;;
49730;SDS011;35622;52.008;5.426;2023-03-23T09:01:43;5.07;;;1.88;;
49730;SDS011;35622;52.008;5.426;2023-03-23T09:04:09;6.18;;;1.60;;
49730;SDS011;35622;52.008;5.426;2023-03-23T09:06:35;3.75;;;1.10;;
49730;SDS011;35622;52.008;5.426;2023-03-23T09:09:02;4.43;;;1.48;;
49730;SDS011;35622;52.008;5.426;2023-03-23T09:11:32;3.25;;;1.35;;
49730;SDS011;35622;52.008;5.426;2023-03-23T09:13:58;5.30;;;1.58;;
49730;SDS011;35622;52.008;5.426;2023-03-23T09:16:24;5.47;;;1.30;;
49730;SDS011;35622;52.008;5.426;2023-03-23T09:18:50;5.47;;;1.60;;
49730;SDS011;35622;52.008;5.426;2023-03-23T09:21:15;5.53;;;1.40;;
49730;SDS011;35622;52.008;5.426;2023-03-23T09:23:41;7.18;;;1.90;;
49730;SDS011;35622;52.008;5.426;2023-03-23T09:26:09;5.70;;;1.70;;
49730;SDS011;35622;52.008;5.426;2023-03-23T09:28:35;5.55;;;1.80;;
49730;SDS011;35622;52.008;5.426;2023-03-23T09:31:01;5.75;;;1.48;;
49730;SDS011;35622;52.008;5.426;2023-03-23T09:33:26;6.00;;;1.45;;
49730;SDS011;35622;52.008;5.426;2023-03-23T09:35:57;7.55;;;1.77;;
49730;SDS011;35622;52.008;5.426;2023-03-23T09:38:23;6.28;;;1.48;;
49730;SDS011;35622;52.008;5.426;2023-03-23T09:40:53;5.80;;;1.52;;
49730;SDS011;35622;52.008;5.426;2023-03-23T09:43:36;7.90;;;1.70;;
49730;SDS011;35622;52.008;5.426;2023-03-23T09:46:12;6.03;;;1.90;;
49730;SDS011;35622;52.008;5.426;2023-03-23T09:51:54;4.82;;;1.40;;
49730;SDS011;35622;52.008;5.426;2023-03-23T09:54:38;5.30;;;1.40;;
49730;SDS011;35622;52.008;5.426;2023-03-23T09:57:11;5.70;;;1.85;;
49730;SDS011;35622;52.008;5.426;2023-03-23T10:00:12;8.65;;;1.95;;
49730;SDS011;35622;52.008;5.426;2023-03-23T10:03:01;6.18;;;1.88;;
49730;SDS011;35622;52.008;5.426;2023-03-23T10:05:39;6.35;;;1.98;;
49730;SDS011;35622;52.008;5.426;2023-03-23T10:08:19;5.60;;;1.65;;
49730;SDS011;35622;52.008;5.426;2023-03-23T10:11:01;7.43;;;1.98;;
49730;SDS011;35622;52.008;5.426;2023-03-23T10:16:07;7.80;;;1.95;;
49730;SDS011;35622;52.008;5.426;2023-03-23T10:18:40;6.07;;;1.85;;
49730;SDS011;35622;52.008;5.426;2023-03-23T10:21:19;10.32;;;1.80;;
49730;SDS011;35622;52.008;5.426;2023-03-23T10:23:50;8.00;;;2.05;;
49730;SDS011;35622;52.008;5.426;2023-03-23T10:29:04;7.75;;;1.75;;
49730;SDS011;35622;52.008;5.426;2023-03-23T10:31:44;9.45;;;1.80;;
49730;SDS011;35622;52.008;5.426;2023-03-23T10:37:08;7.10;;;2.03;;
49730;SDS011;35622;52.008;5.426;2023-03-23T10:39:41;6.05;;;1.90;;
49730;SDS011;35622;52.008;5.426;2023-03-23T10:42:20;6.95;;;1.92;;
49730;SDS011;35622;52.008;5.426;2023-03-23T10:44:48;9.05;;;1.90;;
49730;SDS011;35622;52.008;5.426;2023-03-23T10:47:14;8.48;;;1.98;;
49730;SDS011;35622;52.008;5.426;2023-03-23T10:49:41;7.72;;;1.83;;
49730;SDS011;35622;52.008;5.426;2023-03-23T10:52:36;8.27;;;1.77;;
49730;SDS011;35622;52.008;5.426;2023-03-23T10:57:35;7.05;;;1.60;;
49730;SDS011;35622;52.008;5.426;2023-03-23T11:00:19;8.30;;;2.17;;
49730;SDS011;35622;52.008;5.426;2023-03-23T11:03:05;7.57;;;2.10;;
49730;SDS011;35622;52.008;5.426;2023-03-23T11:05:40;7.47;;;1.50;;
49730;SDS011;35622;52.008;5.426;2023-03-23T11:08:15;8.20;;;1.70;;
49730;SDS011;35622;52.008;5.426;2023-03-23T11:13:19;9.00;;;2.05;;
49730;SDS011;35622;52.008;5.426;2023-03-23T11:15:46;8.77;;;2.10;;
49730;SDS011;35622;52.008;5.426;2023-03-23T11:18:18;8.30;;;2.03;;
49730;SDS011;35622;52.008;5.426;2023-03-23T11:20:48;11.52;;;2.25;;
49730;SDS011;35622;52.008;5.426;2023-03-23T11:23:19;7.93;;;1.90;;
49730;SDS011;35622;52.008;5.426;2023-03-23T11:28:21;6.10;;;1.92;;
49730;SDS011;35622;52.008;5.426;2023-03-23T11:30:52;9.18;;;2.30;;
49730;SDS011;35622;52.008;5.426;2023-03-23T11:33:20;7.57;;;1.58;;
49730;SDS011;35622;52.008;5.426;2023-03-23T11:35:45;7.53;;;1.88;;
49730;SDS011;35622;52.008;5.426;2023-03-23T11:38:16;7.55;;;1.80;;
49730;SDS011;35622;52.008;5.426;2023-03-23T11:40:46;6.68;;;2.03;;
49730;SDS011;35622;52.008;5.426;2023-03-23T11:43:14;8.25;;;1.90;;
49730;SDS011;35622;52.008;5.426;2023-03-23T11:48:57;8.05;;;1.80;;
49730;SDS011;35622;52.008;5.426;2023-03-23T11:54:15;7.57;;;1.77;;
49730;SDS011;35622;52.008;5.426;2023-03-23T11:56:49;5.38;;;1.58;;
49730;SDS011;35622;52.008;5.426;2023-03-23T11:59:33;8.25;;;1.67;;
49730;SDS011;35622;52.008;5.426;2023-03-23T12:10:59;7.38;;;1.58;;
49730;SDS011;35622;52.008;5.426;2023-03-23T12:14:09;7.05;;;1.67;;
49730;SDS011;35622;52.008;5.426;2023-03-23T12:33:56;6.78;;;1.50;;
49730;SDS011;35622;52.008;5.426;2023-03-23T12:44:34;6.40;;;1.77;;
49730;SDS011;35622;52.008;5.426;2023-03-23T12:47:27;4.47;;;1.35;;
49730;SDS011;35622;52.008;5.426;2023-03-23T12:52:45;4.03;;;1.50;;
49730;SDS011;35622;52.008;5.426;2023-03-23T12:57:57;5.65;;;1.52;;
49730;SDS011;35622;52.008;5.426;2023-03-23T13:06:04;5.47;;;1.40;;
49730;SDS011;35622;52.008;5.426;2023-03-23T13:08:33;6.38;;;1.85;;
49730;SDS011;35622;52.008;5.426;2023-03-23T13:11:08;6.35;;;1.73;;
49730;SDS011;35622;52.008;5.426;2023-03-23T13:22:06;6.07;;;1.77;;
49730;SDS011;35622;52.008;5.426;2023-03-23T13:24:56;7.60;;;1.40;;
49730;SDS011;35622;52.008;5.426;2023-03-23T13:27:26;5.93;;;1.27;;
49730;SDS011;35622;52.008;5.426;2023-03-23T13:29:53;5.88;;;1.77;;
49730;SDS011;35622;52.008;5.426;2023-03-23T13:32:21;5.28;;;1.70;;
49730;SDS011;35622;52.008;5.426;2023-03-23T13:35:13;5.57;;;1.65;;
49730;SDS011;35622;52.008;5.426;2023-03-23T13:37:46;5.10;;;1.40;;
49730;SDS011;35622;52.008;5.426;2023-03-23T13:42:59;4.93;;;1.75;;
49730;SDS011;35622;52.008;5.426;2023-03-23T13:50:48;7.00;;;1.40;;
49730;SDS011;35622;52.008;5.426;2023-03-23T13:53:47;6.82;;;1.88;;
49730;SDS011;35622;52.008;5.426;2023-03-23T13:56:17;5.80;;;2.03;;
49730;SDS011;35622;52.008;5.426;2023-03-23T13:58:47;7.45;;;2.40;;
49730;SDS011;35622;52.008;5.426;2023-03-23T14:01:38;4.75;;;1.75;;
49730;SDS011;35622;52.008;5.426;2023-03-23T14:04:07;7.80;;;2.08;;
49730;SDS011;35622;52.008;5.426;2023-03-23T14:06:40;6.93;;;2.08;;
49730;SDS011;35622;52.008;5.426;2023-03-23T14:09:09;5.88;;;1.50;;
49730;SDS011;35622;52.008;5.426;2023-03-23T14:11:58;6.38;;;2.28;;
49730;SDS011;35622;52.008;5.426;2023-03-23T14:14:44;4.95;;;1.50;;
49730;SDS011;35622;52.008;5.426;2023-03-23T14:17:19;4.80;;;1.20;;
49730;SDS011;35622;52.008;5.426;2023-03-23T14:19:53;4.28;;;1.42;;
49730;SDS011;35622;52.008;5.426;2023-03-23T14:22:24;5.60;;;1.88;;
49730;SDS011;35622;52.008;5.426;2023-03-23T14:24:51;9.07;;;1.67;;
49730;SDS011;35622;52.008;5.426;2023-03-23T14:27:23;6.30;;;1.42;;
49730;SDS011;35622;52.008;5.426;2023-03-23T14:29:59;5.47;;;1.60;;
49730;SDS011;35622;52.008;5.426;2023-03-23T14:32:27;7.07;;;1.70;;
49730;SDS011;35622;52.008;5.426;2023-03-23T14:34:56;6.53;;;1.55;;
49730;SDS011;35622;52.008;5.426;2023-03-23T14:37:22;4.35;;;1.70;;
49730;SDS011;35622;52.008;5.426;2023-03-23T14:39:49;4.32;;;1.35;;
49730;SDS011;35622;52.008;5.426;2023-03-23T14:42:17;5.53;;;1.73;;
49730;SDS011;35622;52.008;5.426;2023-03-23T14:44:51;7.60;;;1.70;;
49730;SDS011;35622;52.008;5.426;2023-03-23T14:47:24;6.20;;;1.27;;
49730;SDS011;35622;52.008;5.426;2023-03-23T14:50:03;6.70;;;1.52;;
49730;SDS011;35622;52.008;5.426;2023-03-23T14:52:34;9.73;;;1.70;;
49730;SDS011;35622;52.008;5.426;2023-03-23T14:55:11;5.57;;;1.38;;
49730;SDS011;35622;52.008;5.426;2023-03-23T14:57:42;6.38;;;1.42;;
49730;SDS011;35622;52.008;5.426;2023-03-23T15:00:20;8.13;;;1.67;;
49730;SDS011;35622;52.008;5.426;2023-03-23T15:02:49;7.10;;;1.25;;
49730;SDS011;35622;52.008;5.426;2023-03-23T15:05:23;7.18;;;1.50;;
49730;SDS011;35622;52.008;5.426;2023-03-23T15:07:52;6.18;;;1.52;;
49730;SDS011;35622;52.008;5.426;2023-03-23T15:10:21;5.88;;;1.88;;
49730;SDS011;35622;52.008;5.426;2023-03-23T15:12:49;5.85;;;1.40;;
49730;SDS011;35622;52.008;5.426;2023-03-23T15:17:52;6.10;;;1.55;;
49730;SDS011;35622;52.008;5.426;2023-03-23T15:21:07;7.70;;;1.45;;
49730;SDS011;35622;52.008;5.426;2023-03-23T15:23:07;6.68;;;1.55;;
49730;SDS011;35622;52.008;5.426;2023-03-23T15:25:34;8.45;;;1.63;;
49730;SDS011;35622;52.008;5.426;2023-03-23T15:30:33;5.72;;;1.55;;
49730;SDS011;35622;52.008;5.426;2023-03-23T15:33:03;7.13;;;1.80;;
49730;SDS011;35622;52.008;5.426;2023-03-23T15:35:37;6.45;;;2.38;;
49730;SDS011;35622;52.008;5.426;2023-03-23T15:38:12;6.63;;;1.60;;
49730;SDS011;35622;52.008;5.426;2023-03-23T15:40:43;10.73;;;2.15;;
49730;SDS011;35622;52.008;5.426;2023-03-23T15:45:51;6.07;;;1.60;;
49730;SDS011;35622;52.008;5.426;2023-03-23T15:48:18;7.15;;;1.85;;
49730;SDS011;35622;52.008;5.426;2023-03-23T15:50:45;5.28;;;1.90;;
49730;SDS011;35622;52.008;5.426;2023-03-23T15:53:24;8.52;;;2.00;;
49730;SDS011;35622;52.008;5.426;2023-03-23T15:55:59;8.52;;;1.77;;
49730;SDS011;35622;52.008;5.426;2023-03-23T15:58:26;8.48;;;1.48;;
49730;SDS011;35622;52.008;5.426;2023-03-23T16:00:53;10.45;;;1.98;;
49730;SDS011;35622;52.008;5.426;2023-03-23T16:03:20;8.48;;;2.40;;
49730;SDS011;35622;52.008;5.426;2023-03-23T16:05:49;8.18;;;2.05;;
49730;SDS011;35622;52.008;5.426;2023-03-23T16:08:15;9.05;;;2.22;;
49730;SDS011;35622;52.008;5.426;2023-03-23T16:10:41;9.27;;;2.42;;
49730;SDS011;35622;52.008;5.426;2023-03-23T16:13:07;5.75;;;1.88;;
49730;SDS011;35622;52.008;5.426;2023-03-23T16:15:33;7.13;;;2.00;;
49730;SDS011;35622;52.008;5.426;2023-03-23T16:17:58;8.00;;;2.08;;
49730;SDS011;35622;52.008;5.426;2023-03-23T16:20:24;8.90;;;1.73;;
49730;SDS011;35622;52.008;5.426;2023-03-23T16:22:52;8.40;;;1.95;;
49730;SDS011;35622;52.008;5.426;2023-03-23T16:25:18;6.53;;;1.88;;
49730;SDS011;35622;52.008;5.426;2023-03-23T16:27:44;6.53;;;1.90;;
49730;SDS011;35622;52.008;5.426;2023-03-23T16:32:41;7.70;;;2.65;;
49730;SDS011;35622;52.008;5.426;2023-03-23T16:35:08;9.77;;;1.90;;
49730;SDS011;35622;52.008;5.426;2023-03-23T16:37:34;7.80;;;2.28;;
49730;SDS011;35622;52.008;5.426;2023-03-23T16:40:00;11.18;;;1.95;;
49730;SDS011;35622;52.008;5.426;2023-03-23T16:42:27;10.85;;;2.30;;
49730;SDS011;35622;52.008;5.426;2023-03-23T16:44:52;6.00;;;2.03;;
49730;SDS011;35622;52.008;5.426;2023-03-23T16:47:18;8.25;;;2.20;;
49730;SDS011;35622;52.008;5.426;2023-03-23T16:49:49;7.38;;;2.42;;
49730;SDS011;35622;52.008;5.426;2023-03-23T16:52:18;8.65;;;2.35;;
49730;SDS011;35622;52.008;5.426;2023-03-23T16:54:44;6.47;;;2.40;;
49730;SDS011;35622;52.008;5.426;2023-03-23T16:57:10;9.55;;;1.90;;
49730;SDS011;35622;52.008;5.426;2023-03-23T16:59:36;9.52;;;2.08;;
49730;SDS011;35622;52.008;5.426;2023-03-23T17:02:01;10.32;;;2.45;;
49730;SDS011;35622;52.008;5.426;2023-03-23T17:04:31;8.35;;;2.30;;